sensor_id;sensor_type;location;lat;lon;timestamp;P1;durP1;ratioP1;P2;durP2;ratioP2
45114;SDS011;30877;43.706;10.780;2023-02-28T00:01:36;4.40;;;3.13;;
45114;SDS011;30877;43.706;10.780;2023-02-28T00:04:04;6.82;;;3.38;;
45114;SDS011;30877;43.706;10.780;2023-02-28T00:06:33;4.97;;;3.28;;
45114;SDS011;30877;43.706;10.780;2023-02-28T00:09:00;5.53;;;3.17;;
45114;SDS011;30877;43.706;10.780;2023-02-28T00:11:28;5.28;;;3.63;;
45114;SDS011;30877;43.706;10.780;2023-02-28T00:13:58;4.40;;;3.40;;
45114;SDS011;30877;43.706;10.780;2023-02-28T00:16:26;5.25;;;3.60;;
45114;SDS011;30877;43.706;10.780;2023-02-28T00:18:55;4.55;;;3.13;;
45114;SDS011;30877;43.706;10.780;2023-02-28T00:21:22;5.85;;;3.03;;
45114;SDS011;30877;43.706;10.780;2023-02-28T00:23:51;5.82;;;3.38;;
45114;SDS011;30877;43.706;10.780;2023-02-28T00:26:19;4.88;;;3.38;;
45114;SDS011;30877;43.706;10.780;2023-02-28T00:28:48;4.82;;;3.22;;
45114;SDS011;30877;43.706;10.780;2023-02-28T00:31:23;4.80;;;3.00;;
45114;SDS011;30877;43.706;10.780;2023-02-28T00:33:52;6.38;;;3.58;;
45114;SDS011;30877;43.706;10.780;2023-02-28T00:36:20;6.75;;;3.58;;
45114;SDS011;30877;43.706;10.780;2023-02-28T00:38:49;4.72;;;3.70;;
45114;SDS011;30877;43.706;10.780;2023-02-28T00:41:17;5.22;;;3.28;;
45114;SDS011;30877;43.706;10.780;2023-02-28T00:43:46;4.40;;;3.63;;
45114;SDS011;30877;43.706;10.780;2023-02-28T00:46:14;4.63;;;3.15;;
45114;SDS011;30877;43.706;10.780;2023-02-28T00:48:43;4.53;;;2.95;;
45114;SDS011;30877;43.706;10.780;2023-02-28T00:51:11;5.18;;;3.33;;
45114;SDS011;30877;43.706;10.780;2023-02-28T00:53:39;4.85;;;3.72;;
45114;SDS011;30877;43.706;10.780;2023-02-28T00:56:07;4.55;;;3.38;;
45114;SDS011;30877;43.706;10.780;2023-02-28T00:58:35;4.30;;;3.10;;
45114;SDS011;30877;43.706;10.780;2023-02-28T01:01:03;4.38;;;3.47;;
45114;SDS011;30877;43.706;10.780;2023-02-28T01:03:31;6.03;;;3.85;;
45114;SDS011;30877;43.706;10.780;2023-02-28T01:06:01;4.18;;;3.17;;
45114;SDS011;30877;43.706;10.780;2023-02-28T01:08:29;5.18;;;3.53;;
45114;SDS011;30877;43.706;10.780;2023-02-28T01:10:57;5.13;;;3.85;;
45114;SDS011;30877;43.706;10.780;2023-02-28T01:13:33;4.53;;;3.42;;
45114;SDS011;30877;43.706;10.780;2023-02-28T01:16:01;5.05;;;3.92;;
45114;SDS011;30877;43.706;10.780;2023-02-28T01:18:30;5.25;;;3.72;;
45114;SDS011;30877;43.706;10.780;2023-02-28T01:20:58;4.20;;;3.17;;
45114;SDS011;30877;43.706;10.780;2023-02-28T01:23:31;6.43;;;4.03;;
45114;SDS011;30877;43.706;10.780;2023-02-28T01:26:03;5.03;;;3.67;;
45114;SDS011;30877;43.706;10.780;2023-02-28T01:28:32;5.70;;;4.03;;
45114;SDS011;30877;43.706;10.780;2023-02-28T01:31:01;4.25;;;3.50;;
45114;SDS011;30877;43.706;10.780;2023-02-28T01:33:29;5.18;;;4.10;;
45114;SDS011;30877;43.706;10.780;2023-02-28T01:35:58;5.38;;;4.00;;
45114;SDS011;30877;43.706;10.780;2023-02-28T01:38:29;4.90;;;3.80;;
45114;SDS011;30877;43.706;10.780;2023-02-28T01:40:58;5.45;;;3.80;;
45114;SDS011;30877;43.706;10.780;2023-02-28T01:43:26;5.40;;;4.00;;
45114;SDS011;30877;43.706;10.780;2023-02-28T01:45:56;6.30;;;3.85;;
45114;SDS011;30877;43.706;10.780;2023-02-28T01:48:26;5.60;;;4.28;;
45114;SDS011;30877;43.706;10.780;2023-02-28T01:50:58;5.53;;;4.20;;
45114;SDS011;30877;43.706;10.780;2023-02-28T01:53:34;4.63;;;3.85;;
45114;SDS011;30877;43.706;10.780;2023-02-28T01:56:06;5.65;;;4.25;;
45114;SDS011;30877;43.706;10.780;2023-02-28T01:58:37;5.05;;;4.07;;
45114;SDS011;30877;43.706;10.780;2023-02-28T02:01:05;4.28;;;3.88;;
45114;SDS011;30877;43.706;10.780;2023-02-28T02:03:33;5.47;;;4.40;;
45114;SDS011;30877;43.706;10.780;2023-02-28T02:06:03;4.50;;;4.10;;
45114;SDS011;30877;43.706;10.780;2023-02-28T02:08:31;5.30;;;3.92;;
45114;SDS011;30877;43.706;10.780;2023-02-28T02:11:01;5.25;;;4.22;;
45114;SDS011;30877;43.706;10.780;2023-02-28T02:13:33;5.05;;;4.00;;
45114;SDS011;30877;43.706;10.780;2023-02-28T02:16:11;5.03;;;3.72;;
45114;SDS011;30877;43.706;10.780;2023-02-28T02:18:52;5.25;;;3.83;;
45114;SDS011;30877;43.706;10.780;2023-02-28T02:30:44;4.22;;;3.78;;
45114;SDS011;30877;43.706;10.780;2023-02-28T02:33:32;4.40;;;3.47;;
45114;SDS011;30877;43.706;10.780;2023-02-28T02:36:29;5.30;;;3.97;;
45114;SDS011;30877;43.706;10.780;2023-02-28T02:39:02;5.72;;;3.72;;
45114;SDS011;30877;43.706;10.780;2023-02-28T02:41:34;5.43;;;3.92;;
45114;SDS011;30877;43.706;10.780;2023-02-28T02:44:10;5.88;;;4.00;;
45114;SDS011;30877;43.706;10.780;2023-02-28T02:46:42;4.80;;;3.83;;
45114;SDS011;30877;43.706;10.780;2023-02-28T02:49:14;3.72;;;3.40;;
45114;SDS011;30877;43.706;10.780;2023-02-28T02:51:48;4.38;;;3.70;;
45114;SDS011;30877;43.706;10.780;2023-02-28T02:54:19;5.13;;;3.95;;
45114;SDS011;30877;43.706;10.780;2023-02-28T02:56:55;5.70;;;3.50;;
45114;SDS011;30877;43.706;10.780;2023-02-28T02:59:27;5.07;;;3.58;;
45114;SDS011;30877;43.706;10.780;2023-02-28T03:02:01;4.65;;;3.80;;
45114;SDS011;30877;43.706;10.780;2023-02-28T03:04:34;4.90;;;3.25;;
45114;SDS011;30877;43.706;10.780;2023-02-28T03:07:08;6.05;;;4.28;;
45114;SDS011;30877;43.706;10.780;2023-02-28T03:09:36;4.70;;;3.63;;
45114;SDS011;30877;43.706;10.780;2023-02-28T03:12:06;5.13;;;3.58;;
45114;SDS011;30877;43.706;10.780;2023-02-28T03:14:40;5.88;;;3.30;;
45114;SDS011;30877;43.706;10.780;2023-02-28T03:17:20;4.93;;;3.72;;
45114;SDS011;30877;43.706;10.780;2023-02-28T03:20:12;5.25;;;3.33;;
45114;SDS011;30877;43.706;10.780;2023-02-28T03:22:52;4.50;;;3.65;;
45114;SDS011;30877;43.706;10.780;2023-02-28T03:25:29;4.03;;;3.50;;
45114;SDS011;30877;43.706;10.780;2023-02-28T03:28:02;3.75;;;3.33;;
45114;SDS011;30877;43.706;10.780;2023-02-28T03:30:38;3.25;;;2.78;;
45114;SDS011;30877;43.706;10.780;2023-02-28T03:33:12;4.40;;;3.45;;
45114;SDS011;30877;43.706;10.780;2023-02-28T03:35:45;4.05;;;3.30;;
45114;SDS011;30877;43.706;10.780;2023-02-28T03:38:21;3.78;;;3.13;;
45114;SDS011;30877;43.706;10.780;2023-02-28T03:40:55;3.22;;;2.90;;
45114;SDS011;30877;43.706;10.780;2023-02-28T03:43:31;4.45;;;3.47;;
45114;SDS011;30877;43.706;10.780;2023-02-28T03:46:02;3.38;;;2.53;;
45114;SDS011;30877;43.706;10.780;2023-02-28T03:48:37;3.13;;;2.60;;
45114;SDS011;30877;43.706;10.780;2023-02-28T03:51:10;4.05;;;2.60;;
45114;SDS011;30877;43.706;10.780;2023-02-28T03:53:43;5.80;;;2.45;;
45114;SDS011;30877;43.706;10.780;2023-02-28T03:56:16;4.20;;;2.50;;
45114;SDS011;30877;43.706;10.780;2023-02-28T03:58:47;2.72;;;2.45;;
45114;SDS011;30877;43.706;10.780;2023-02-28T04:01:19;3.45;;;2.63;;
45114;SDS011;30877;43.706;10.780;2023-02-28T04:03:51;2.92;;;2.15;;
45114;SDS011;30877;43.706;10.780;2023-02-28T04:06:20;2.97;;;2.28;;
45114;SDS011;30877;43.706;10.780;2023-02-28T04:08:50;3.03;;;2.20;;
45114;SDS011;30877;43.706;10.780;2023-02-28T04:11:20;2.70;;;2.25;;
45114;SDS011;30877;43.706;10.780;2023-02-28T04:13:50;2.92;;;2.20;;
45114;SDS011;30877;43.706;10.780;2023-02-28T04:16:18;2.33;;;1.80;;
45114;SDS011;30877;43.706;10.780;2023-02-28T04:19:01;2.47;;;2.28;;
45114;SDS011;30877;43.706;10.780;2023-02-28T04:21:29;2.35;;;2.00;;
45114;SDS011;30877;43.706;10.780;2023-02-28T04:23:59;3.03;;;2.03;;
45114;SDS011;30877;43.706;10.780;2023-02-28T04:26:28;2.38;;;1.90;;
45114;SDS011;30877;43.706;10.780;2023-02-28T04:28:56;2.20;;;1.85;;
45114;SDS011;30877;43.706;10.780;2023-02-28T04:31:24;2.75;;;2.03;;
45114;SDS011;30877;43.706;10.780;2023-02-28T04:33:53;2.95;;;1.92;;
45114;SDS011;30877;43.706;10.780;2023-02-28T04:36:21;2.33;;;1.83;;
45114;SDS011;30877;43.706;10.780;2023-02-28T04:38:50;2.22;;;1.75;;
45114;SDS011;30877;43.706;10.780;2023-02-28T04:41:20;2.53;;;2.00;;
45114;SDS011;30877;43.706;10.780;2023-02-28T04:43:50;2.10;;;1.80;;
45114;SDS011;30877;43.706;10.780;2023-02-28T04:46:19;2.35;;;2.03;;
45114;SDS011;30877;43.706;10.780;2023-02-28T04:48:47;2.38;;;2.05;;
45114;SDS011;30877;43.706;10.780;2023-02-28T04:51:17;3.45;;;1.77;;
45114;SDS011;30877;43.706;10.780;2023-02-28T04:53:46;2.97;;;2.00;;
45114;SDS011;30877;43.706;10.780;2023-02-28T04:56:15;2.60;;;1.98;;
45114;SDS011;30877;43.706;10.780;2023-02-28T04:58:46;2.60;;;1.73;;
45114;SDS011;30877;43.706;10.780;2023-02-28T05:01:21;2.70;;;2.25;;
45114;SDS011;30877;43.706;10.780;2023-02-28T05:06:20;2.83;;;1.70;;
45114;SDS011;30877;43.706;10.780;2023-02-28T05:08:50;4.55;;;2.60;;
45114;SDS011;30877;43.706;10.780;2023-02-28T05:11:20;2.58;;;1.90;;
45114;SDS011;30877;43.706;10.780;2023-02-28T05:13:50;2.47;;;1.92;;
45114;SDS011;30877;43.706;10.780;2023-02-28T05:16:19;3.00;;;2.17;;
45114;SDS011;30877;43.706;10.780;2023-02-28T05:18:47;3.08;;;2.28;;
45114;SDS011;30877;43.706;10.780;2023-02-28T05:21:25;3.00;;;2.03;;
45114;SDS011;30877;43.706;10.780;2023-02-28T05:23:56;2.58;;;2.00;;
45114;SDS011;30877;43.706;10.780;2023-02-28T05:26:26;3.85;;;2.00;;
45114;SDS011;30877;43.706;10.780;2023-02-28T05:28:56;3.17;;;2.03;;
45114;SDS011;30877;43.706;10.780;2023-02-28T05:31:24;3.38;;;2.10;;
45114;SDS011;30877;43.706;10.780;2023-02-28T05:33:52;3.97;;;2.35;;
45114;SDS011;30877;43.706;10.780;2023-02-28T05:36:20;3.13;;;1.90;;
45114;SDS011;30877;43.706;10.780;2023-02-28T05:38:48;2.75;;;1.90;;
45114;SDS011;30877;43.706;10.780;2023-02-28T05:41:42;2.55;;;2.00;;
45114;SDS011;30877;43.706;10.780;2023-02-28T05:44:12;2.88;;;1.95;;
45114;SDS011;30877;43.706;10.780;2023-02-28T05:46:40;2.03;;;1.50;;
45114;SDS011;30877;43.706;10.780;2023-02-28T05:49:07;2.30;;;1.60;;
45114;SDS011;30877;43.706;10.780;2023-02-28T05:51:35;2.10;;;1.65;;
45114;SDS011;30877;43.706;10.780;2023-02-28T05:54:06;2.28;;;1.88;;
45114;SDS011;30877;43.706;10.780;2023-02-28T05:56:34;1.90;;;1.65;;
45114;SDS011;30877;43.706;10.780;2023-02-28T05:59:04;3.97;;;1.70;;
45114;SDS011;30877;43.706;10.780;2023-02-28T06:01:34;2.00;;;1.42;;
45114;SDS011;30877;43.706;10.780;2023-02-28T06:04:04;2.20;;;1.45;;
45114;SDS011;30877;43.706;10.780;2023-02-28T06:06:32;3.55;;;1.73;;
45114;SDS011;30877;43.706;10.780;2023-02-28T06:09:04;2.33;;;1.63;;
45114;SDS011;30877;43.706;10.780;2023-02-28T06:11:32;2.88;;;1.52;;
45114;SDS011;30877;43.706;10.780;2023-02-28T06:14:00;2.75;;;1.92;;
45114;SDS011;30877;43.706;10.780;2023-02-28T06:16:29;3.30;;;1.70;;
45114;SDS011;30877;43.706;10.780;2023-02-28T06:19:00;2.28;;;1.58;;
45114;SDS011;30877;43.706;10.780;2023-02-28T06:21:30;2.30;;;1.40;;
45114;SDS011;30877;43.706;10.780;2023-02-28T06:23:58;2.45;;;1.70;;
45114;SDS011;30877;43.706;10.780;2023-02-28T06:26:26;1.98;;;1.40;;
45114;SDS011;30877;43.706;10.780;2023-02-28T06:28:54;1.98;;;1.30;;
45114;SDS011;30877;43.706;10.780;2023-02-28T06:31:22;1.95;;;1.38;;
45114;SDS011;30877;43.706;10.780;2023-02-28T06:33:52;1.85;;;1.48;;
45114;SDS011;30877;43.706;10.780;2023-02-28T06:36:22;2.95;;;1.58;;
45114;SDS011;30877;43.706;10.780;2023-02-28T06:38:50;1.83;;;1.40;;
45114;SDS011;30877;43.706;10.780;2023-02-28T06:41:22;2.63;;;1.58;;
45114;SDS011;30877;43.706;10.780;2023-02-28T06:43:50;2.15;;;1.35;;
45114;SDS011;30877;43.706;10.780;2023-02-28T06:46:17;2.22;;;1.38;;
45114;SDS011;30877;43.706;10.780;2023-02-28T06:48:45;2.58;;;1.40;;
45114;SDS011;30877;43.706;10.780;2023-02-28T06:51:14;1.35;;;1.00;;
45114;SDS011;30877;43.706;10.780;2023-02-28T06:53:45;1.98;;;0.98;;
45114;SDS011;30877;43.706;10.780;2023-02-28T06:56:13;1.42;;;1.00;;
45114;SDS011;30877;43.706;10.780;2023-02-28T06:58:45;2.05;;;1.10;;
45114;SDS011;30877;43.706;10.780;2023-02-28T07:01:14;2.00;;;1.05;;
45114;SDS011;30877;43.706;10.780;2023-02-28T07:03:42;2.63;;;1.10;;
45114;SDS011;30877;43.706;10.780;2023-02-28T07:06:10;1.38;;;0.90;;
45114;SDS011;30877;43.706;10.780;2023-02-28T07:08:38;1.40;;;1.02;;
45114;SDS011;30877;43.706;10.780;2023-02-28T07:11:09;1.42;;;1.02;;
45114;SDS011;30877;43.706;10.780;2023-02-28T07:13:37;1.20;;;0.80;;
45114;SDS011;30877;43.706;10.780;2023-02-28T07:16:05;1.55;;;1.10;;
45114;SDS011;30877;43.706;10.780;2023-02-28T07:18:36;1.40;;;1.02;;
45114;SDS011;30877;43.706;10.780;2023-02-28T07:21:05;3.47;;;1.15;;
45114;SDS011;30877;43.706;10.780;2023-02-28T07:23:34;1.10;;;1.00;;
45114;SDS011;30877;43.706;10.780;2023-02-28T07:26:04;1.30;;;1.00;;
45114;SDS011;30877;43.706;10.780;2023-02-28T07:28:34;1.10;;;0.80;;
45114;SDS011;30877;43.706;10.780;2023-02-28T07:31:04;2.00;;;1.13;;
45114;SDS011;30877;43.706;10.780;2023-02-28T07:33:33;1.10;;;0.80;;
45114;SDS011;30877;43.706;10.780;2023-02-28T07:36:01;1.50;;;0.80;;
45114;SDS011;30877;43.706;10.780;2023-02-28T07:38:29;1.10;;;0.82;;
45114;SDS011;30877;43.706;10.780;2023-02-28T07:40:57;1.00;;;0.85;;
45114;SDS011;30877;43.706;10.780;2023-02-28T07:43:25;1.20;;;0.90;;
45114;SDS011;30877;43.706;10.780;2023-02-28T07:45:54;1.25;;;0.82;;
45114;SDS011;30877;43.706;10.780;2023-02-28T07:48:22;1.10;;;0.82;;
45114;SDS011;30877;43.706;10.780;2023-02-28T07:50:53;1.80;;;1.08;;
45114;SDS011;30877;43.706;10.780;2023-02-28T07:53:22;1.10;;;0.80;;
45114;SDS011;30877;43.706;10.780;2023-02-28T07:55:49;1.50;;;1.08;;
45114;SDS011;30877;43.706;10.780;2023-02-28T07:58:17;1.20;;;1.10;;
45114;SDS011;30877;43.706;10.780;2023-02-28T08:00:45;1.52;;;1.20;;
45114;SDS011;30877;43.706;10.780;2023-02-28T08:03:14;1.85;;;1.00;;
45114;SDS011;30877;43.706;10.780;2023-02-28T08:05:43;2.00;;;0.85;;
45114;SDS011;30877;43.706;10.780;2023-02-28T08:08:10;1.10;;;0.75;;
45114;SDS011;30877;43.706;10.780;2023-02-28T08:10:38;1.88;;;1.00;;
45114;SDS011;30877;43.706;10.780;2023-02-28T08:13:06;1.30;;;1.08;;
45114;SDS011;30877;43.706;10.780;2023-02-28T08:15:34;1.60;;;1.05;;
45114;SDS011;30877;43.706;10.780;2023-02-28T08:18:02;1.98;;;1.13;;
45114;SDS011;30877;43.706;10.780;2023-02-28T08:20:32;2.22;;;1.27;;
45114;SDS011;30877;43.706;10.780;2023-02-28T08:23:00;2.17;;;1.33;;
45114;SDS011;30877;43.706;10.780;2023-02-28T08:25:28;2.55;;;1.20;;
45114;SDS011;30877;43.706;10.780;2023-02-28T08:27:56;1.85;;;1.30;;
45114;SDS011;30877;43.706;10.780;2023-02-28T08:30:23;1.80;;;1.30;;
45114;SDS011;30877;43.706;10.780;2023-02-28T08:32:51;2.25;;;1.38;;
45114;SDS011;30877;43.706;10.780;2023-02-28T08:35:19;1.60;;;1.13;;
45114;SDS011;30877;43.706;10.780;2023-02-28T08:37:48;2.22;;;1.33;;
45114;SDS011;30877;43.706;10.780;2023-02-28T08:40:16;1.90;;;1.20;;
45114;SDS011;30877;43.706;10.780;2023-02-28T08:42:48;1.65;;;1.30;;
45114;SDS011;30877;43.706;10.780;2023-02-28T08:45:16;2.00;;;1.27;;
45114;SDS011;30877;43.706;10.780;2023-02-28T08:47:44;4.15;;;1.23;;
45114;SDS011;30877;43.706;10.780;2023-02-28T08:50:11;1.80;;;1.23;;
45114;SDS011;30877;43.706;10.780;2023-02-28T08:52:42;1.63;;;1.33;;
45114;SDS011;30877;43.706;10.780;2023-02-28T08:55:12;2.35;;;1.30;;
45114;SDS011;30877;43.706;10.780;2023-02-28T08:57:39;1.42;;;1.10;;
45114;SDS011;30877;43.706;10.780;2023-02-28T09:00:07;1.60;;;1.25;;
45114;SDS011;30877;43.706;10.780;2023-02-28T09:02:40;2.15;;;1.30;;
45114;SDS011;30877;43.706;10.780;2023-02-28T09:05:11;1.30;;;1.20;;
45114;SDS011;30877;43.706;10.780;2023-02-28T09:07:44;2.25;;;1.50;;
45114;SDS011;30877;43.706;10.780;2023-02-28T09:10:13;2.45;;;1.48;;
45114;SDS011;30877;43.706;10.780;2023-02-28T09:12:41;1.50;;;1.17;;
45114;SDS011;30877;43.706;10.780;2023-02-28T09:15:12;2.50;;;1.30;;
45114;SDS011;30877;43.706;10.780;2023-02-28T09:17:40;2.55;;;1.50;;
45114;SDS011;30877;43.706;10.780;2023-02-28T09:20:11;2.05;;;1.40;;
45114;SDS011;30877;43.706;10.780;2023-02-28T09:22:39;2.30;;;1.58;;
45114;SDS011;30877;43.706;10.780;2023-02-28T09:25:07;2.47;;;1.20;;
45114;SDS011;30877;43.706;10.780;2023-02-28T09:27:36;2.15;;;1.35;;
45114;SDS011;30877;43.706;10.780;2023-02-28T09:30:05;1.45;;;1.30;;
45114;SDS011;30877;43.706;10.780;2023-02-28T09:32:34;1.95;;;1.33;;
45114;SDS011;30877;43.706;10.780;2023-02-28T09:35:02;2.30;;;1.15;;
45114;SDS011;30877;43.706;10.780;2023-02-28T09:37:30;1.52;;;1.13;;
45114;SDS011;30877;43.706;10.780;2023-02-28T09:39:58;1.58;;;1.20;;
45114;SDS011;30877;43.706;10.780;2023-02-28T09:45:26;1.73;;;1.25;;
45114;SDS011;30877;43.706;10.780;2023-02-28T09:47:58;2.17;;;1.20;;
45114;SDS011;30877;43.706;10.780;2023-02-28T09:50:33;1.00;;;0.80;;
45114;SDS011;30877;43.706;10.780;2023-02-28T09:53:06;1.27;;;1.00;;
45114;SDS011;30877;43.706;10.780;2023-02-28T09:55:44;2.28;;;1.20;;
45114;SDS011;30877;43.706;10.780;2023-02-28T09:58:18;1.58;;;1.40;;
45114;SDS011;30877;43.706;10.780;2023-02-28T10:00:56;1.83;;;1.05;;
45114;SDS011;30877;43.706;10.780;2023-02-28T10:03:31;2.38;;;1.30;;
45114;SDS011;30877;43.706;10.780;2023-02-28T10:06:05;1.90;;;1.35;;
45114;SDS011;30877;43.706;10.780;2023-02-28T10:08:45;1.77;;;1.40;;
45114;SDS011;30877;43.706;10.780;2023-02-28T10:11:24;1.98;;;1.33;;
45114;SDS011;30877;43.706;10.780;2023-02-28T10:13:57;1.80;;;1.30;;
45114;SDS011;30877;43.706;10.780;2023-02-28T10:16:31;5.25;;;4.10;;
45114;SDS011;30877;43.706;10.780;2023-02-28T10:19:05;2.55;;;1.52;;
45114;SDS011;30877;43.706;10.780;2023-02-28T10:21:40;2.00;;;1.50;;
45114;SDS011;30877;43.706;10.780;2023-02-28T10:24:16;2.50;;;1.92;;
45114;SDS011;30877;43.706;10.780;2023-02-28T10:26:48;2.05;;;1.77;;
45114;SDS011;30877;43.706;10.780;2023-02-28T10:29:21;1.70;;;1.60;;
45114;SDS011;30877;43.706;10.780;2023-02-28T10:31:50;3.10;;;1.80;;
45114;SDS011;30877;43.706;10.780;2023-02-28T10:34:18;4.40;;;1.85;;
45114;SDS011;30877;43.706;10.780;2023-02-28T10:36:47;2.05;;;1.63;;
45114;SDS011;30877;43.706;10.780;2023-02-28T10:39:40;1.95;;;1.40;;
45114;SDS011;30877;43.706;10.780;2023-02-28T10:42:20;2.33;;;1.40;;
45114;SDS011;30877;43.706;10.780;2023-02-28T10:45:06;1.42;;;1.33;;
45114;SDS011;30877;43.706;10.780;2023-02-28T10:47:40;1.55;;;1.42;;
45114;SDS011;30877;43.706;10.780;2023-02-28T10:50:27;2.88;;;1.98;;
45114;SDS011;30877;43.706;10.780;2023-02-28T10:55:59;2.13;;;1.80;;
45114;SDS011;30877;43.706;10.780;2023-02-28T10:58:30;1.85;;;1.60;;
45114;SDS011;30877;43.706;10.780;2023-02-28T11:01:12;1.98;;;1.65;;
45114;SDS011;30877;43.706;10.780;2023-02-28T11:03:43;1.70;;;1.50;;
45114;SDS011;30877;43.706;10.780;2023-02-28T11:06:15;2.20;;;1.90;;
45114;SDS011;30877;43.706;10.780;2023-02-28T11:08:47;1.77;;;1.60;;
45114;SDS011;30877;43.706;10.780;2023-02-28T11:11:18;2.67;;;1.73;;
45114;SDS011;30877;43.706;10.780;2023-02-28T11:13:47;2.40;;;2.00;;
45114;SDS011;30877;43.706;10.780;2023-02-28T11:16:22;2.92;;;2.20;;
45114;SDS011;30877;43.706;10.780;2023-02-28T11:18:59;2.10;;;1.63;;
45114;SDS011;30877;43.706;10.780;2023-02-28T11:21:30;4.53;;;2.15;;
45114;SDS011;30877;43.706;10.780;2023-02-28T11:24:02;2.15;;;1.65;;
45114;SDS011;30877;43.706;10.780;2023-02-28T11:26:40;1.67;;;1.25;;
45114;SDS011;30877;43.706;10.780;2023-02-28T11:29:11;2.22;;;1.80;;
45114;SDS011;30877;43.706;10.780;2023-02-28T11:35:00;2.30;;;1.92;;
45114;SDS011;30877;43.706;10.780;2023-02-28T11:37:31;2.72;;;1.92;;
45114;SDS011;30877;43.706;10.780;2023-02-28T11:40:00;3.13;;;2.15;;
45114;SDS011;30877;43.706;10.780;2023-02-28T11:42:43;2.75;;;2.47;;
45114;SDS011;30877;43.706;10.780;2023-02-28T11:45:24;2.70;;;2.30;;
45114;SDS011;30877;43.706;10.780;2023-02-28T11:48:13;3.25;;;2.42;;
45114;SDS011;30877;43.706;10.780;2023-02-28T11:50:52;2.65;;;2.28;;
45114;SDS011;30877;43.706;10.780;2023-02-28T11:53:37;4.20;;;2.40;;
45114;SDS011;30877;43.706;10.780;2023-02-28T11:56:20;5.03;;;2.70;;
45114;SDS011;30877;43.706;10.780;2023-02-28T11:58:55;3.42;;;2.20;;
45114;SDS011;30877;43.706;10.780;2023-02-28T12:01:38;2.85;;;2.38;;
45114;SDS011;30877;43.706;10.780;2023-02-28T12:04:24;3.15;;;2.67;;
45114;SDS011;30877;43.706;10.780;2023-02-28T12:07:00;3.20;;;2.90;;
45114;SDS011;30877;43.706;10.780;2023-02-28T12:09:47;3.15;;;2.60;;
45114;SDS011;30877;43.706;10.780;2023-02-28T12:12:29;2.97;;;2.47;;
45114;SDS011;30877;43.706;10.780;2023-02-28T12:15:13;3.75;;;2.78;;
45114;SDS011;30877;43.706;10.780;2023-02-28T12:18:04;3.92;;;2.65;;
45114;SDS011;30877;43.706;10.780;2023-02-28T12:20:51;4.85;;;3.10;;
45114;SDS011;30877;43.706;10.780;2023-02-28T12:23:35;3.25;;;2.63;;
45114;SDS011;30877;43.706;10.780;2023-02-28T12:26:38;3.70;;;2.90;;
45114;SDS011;30877;43.706;10.780;2023-02-28T12:29:10;3.00;;;2.70;;
45114;SDS011;30877;43.706;10.780;2023-02-28T12:31:47;3.25;;;2.70;;
45114;SDS011;30877;43.706;10.780;2023-02-28T12:34:21;3.80;;;3.30;;
45114;SDS011;30877;43.706;10.780;2023-02-28T12:37:17;4.18;;;3.10;;
45114;SDS011;30877;43.706;10.780;2023-02-28T12:39:51;3.50;;;2.88;;
45114;SDS011;30877;43.706;10.780;2023-02-28T12:42:28;3.83;;;3.35;;
45114;SDS011;30877;43.706;10.780;2023-02-28T12:45:01;5.22;;;3.28;;
45114;SDS011;30877;43.706;10.780;2023-02-28T12:47:32;3.97;;;3.42;;
45114;SDS011;30877;43.706;10.780;2023-02-28T12:50:02;3.70;;;3.28;;
45114;SDS011;30877;43.706;10.780;2023-02-28T12:52:37;3.35;;;2.97;;
45114;SDS011;30877;43.706;10.780;2023-02-28T12:55:14;3.85;;;3.50;;
45114;SDS011;30877;43.706;10.780;2023-02-28T12:57:48;4.15;;;3.20;;
45114;SDS011;30877;43.706;10.780;2023-02-28T13:00:23;3.67;;;2.70;;
45114;SDS011;30877;43.706;10.780;2023-02-28T13:03:03;3.47;;;2.80;;
45114;SDS011;30877;43.706;10.780;2023-02-28T13:11:30;3.67;;;3.10;;
45114;SDS011;30877;43.706;10.780;2023-02-28T13:14:03;4.32;;;3.55;;
45114;SDS011;30877;43.706;10.780;2023-02-28T13:19:29;3.85;;;3.33;;
45114;SDS011;30877;43.706;10.780;2023-02-28T13:21:59;3.20;;;2.90;;
45114;SDS011;30877;43.706;10.780;2023-02-28T13:24:39;4.60;;;3.13;;
45114;SDS011;30877;43.706;10.780;2023-02-28T13:27:17;4.57;;;3.33;;
45114;SDS011;30877;43.706;10.780;2023-02-28T13:29:52;3.97;;;3.20;;
45114;SDS011;30877;43.706;10.780;2023-02-28T13:32:31;4.18;;;3.75;;
45114;SDS011;30877;43.706;10.780;2023-02-28T13:35:13;4.75;;;3.65;;
45114;SDS011;30877;43.706;10.780;2023-02-28T13:44:14;4.28;;;3.00;;
45114;SDS011;30877;43.706;10.780;2023-02-28T13:49:51;4.95;;;3.80;;
45114;SDS011;30877;43.706;10.780;2023-02-28T13:52:20;5.05;;;3.88;;
45114;SDS011;30877;43.706;10.780;2023-02-28T13:54:56;3.75;;;3.35;;
45114;SDS011;30877;43.706;10.780;2023-02-28T13:57:41;5.30;;;3.78;;
45114;SDS011;30877;43.706;10.780;2023-02-28T14:00:29;6.38;;;3.88;;
45114;SDS011;30877;43.706;10.780;2023-02-28T14:03:14;6.18;;;3.67;;
45114;SDS011;30877;43.706;10.780;2023-02-28T14:08:55;4.28;;;3.42;;
45114;SDS011;30877;43.706;10.780;2023-02-28T14:11:28;4.63;;;3.47;;
45114;SDS011;30877;43.706;10.780;2023-02-28T14:13:59;5.53;;;3.78;;
45114;SDS011;30877;43.706;10.780;2023-02-28T14:16:35;5.00;;;3.60;;
45114;SDS011;30877;43.706;10.780;2023-02-28T14:19:10;5.55;;;3.50;;
45114;SDS011;30877;43.706;10.780;2023-02-28T14:21:43;6.82;;;3.92;;
45114;SDS011;30877;43.706;10.780;2023-02-28T14:27:17;3.22;;;2.92;;
45114;SDS011;30877;43.706;10.780;2023-02-28T14:33:16;6.10;;;4.55;;
45114;SDS011;30877;43.706;10.780;2023-02-28T14:35:55;7.53;;;3.95;;
45114;SDS011;30877;43.706;10.780;2023-02-28T14:38:35;5.32;;;3.78;;
45114;SDS011;30877;43.706;10.780;2023-02-28T14:41:12;4.13;;;3.20;;
45114;SDS011;30877;43.706;10.780;2023-02-28T14:43:48;5.88;;;3.83;;
45114;SDS011;30877;43.706;10.780;2023-02-28T14:46:17;5.50;;;4.15;;
45114;SDS011;30877;43.706;10.780;2023-02-28T14:48:48;3.50;;;2.90;;
45114;SDS011;30877;43.706;10.780;2023-02-28T14:51:20;4.30;;;3.80;;
45114;SDS011;30877;43.706;10.780;2023-02-28T14:53:50;4.00;;;3.22;;
45114;SDS011;30877;43.706;10.780;2023-02-28T14:56:23;4.22;;;3.53;;
45114;SDS011;30877;43.706;10.780;2023-02-28T14:58:54;4.35;;;3.40;;
45114;SDS011;30877;43.706;10.780;2023-02-28T15:01:23;4.00;;;3.25;;
45114;SDS011;30877;43.706;10.780;2023-02-28T15:04:03;7.55;;;5.22;;
45114;SDS011;30877;43.706;10.780;2023-02-28T15:06:32;4.85;;;3.78;;
45114;SDS011;30877;43.706;10.780;2023-02-28T15:09:07;3.45;;;3.15;;
45114;SDS011;30877;43.706;10.780;2023-02-28T15:11:41;4.10;;;3.38;;
45114;SDS011;30877;43.706;10.780;2023-02-28T15:14:14;4.38;;;3.55;;
45114;SDS011;30877;43.706;10.780;2023-02-28T15:16:46;5.63;;;3.38;;
45114;SDS011;30877;43.706;10.780;2023-02-28T15:19:21;3.65;;;3.22;;
45114;SDS011;30877;43.706;10.780;2023-02-28T15:21:52;3.50;;;3.13;;
45114;SDS011;30877;43.706;10.780;2023-02-28T15:24:27;5.50;;;3.55;;
45114;SDS011;30877;43.706;10.780;2023-02-28T15:29:32;4.50;;;3.13;;
45114;SDS011;30877;43.706;10.780;2023-02-28T15:32:18;5.25;;;3.03;;
45114;SDS011;30877;43.706;10.780;2023-02-28T15:34:53;4.05;;;2.83;;
45114;SDS011;30877;43.706;10.780;2023-02-28T15:37:28;3.78;;;3.13;;
45114;SDS011;30877;43.706;10.780;2023-02-28T15:40:10;4.63;;;2.72;;
45114;SDS011;30877;43.706;10.780;2023-02-28T15:42:40;3.30;;;2.75;;
45114;SDS011;30877;43.706;10.780;2023-02-28T15:45:32;4.07;;;3.00;;
45114;SDS011;30877;43.706;10.780;2023-02-28T15:48:05;3.13;;;2.83;;
45114;SDS011;30877;43.706;10.780;2023-02-28T15:50:41;5.47;;;3.63;;
45114;SDS011;30877;43.706;10.780;2023-02-28T15:53:13;4.13;;;3.10;;
45114;SDS011;30877;43.706;10.780;2023-02-28T15:55:43;4.75;;;3.20;;